Time;durP1;ratioP1;P1;durP2;ratioP2;P2;SDS_P1;SDS_P2;PMS_P1;PMS_P2;Temp;Humidity;BMP_temperature;BMP_pressure;BME280_temperature;BME280_humidity;BME280_pressure;Samples;Min_cycle;Max_cycle;Signal;HPM_P1;HPM_P2
2021/09/01 00:02:06;;;;;;;607.53;549.80;;;;;;;-142.25;100.00;58004.16;5078098;28;20040;-58
2021/09/01 00:04:32;;;;;;;610.07;552.70;;;;;;;-142.25;100.00;58004.16;5060694;28;20375;-57
2021/09/01 00:06:57;;;;;;;603.83;546.67;;;;;;;-142.25;100.00;58004.16;5081417;28;20043;-59
2021/09/01 00:09:22;;;;;;;604.17;547.33;;;;;;;-142.25;100.00;58004.16;5078588;28;20329;-57
2021/09/01 00:11:48;;;;;;;604.30;547.20;;;;;;;-142.25;100.00;58004.16;5080145;28;20065;-58
2021/09/01 00:14:14;;;;;;;615.47;557.67;;;;;;;-142.25;100.00;58004.16;5079493;28;20028;-58
2021/09/01 00:16:40;;;;;;;605.17;548.20;;;;;;;-142.25;100.00;58004.16;5079117;28;20058;-57
2021/09/01 00:19:07;;;;;;;604.87;547.73;;;;;;;-142.25;100.00;58004.16;5080404;28;20059;-59
2021/09/01 00:21:33;;;;;;;606.77;549.63;;;;;;;-142.25;100.00;58004.16;5079554;28;20356;-58
2021/09/01 00:23:59;;;;;;;610.17;553.07;;;;;;;-142.25;100.00;58004.16;5079043;28;20046;-58
2021/09/01 00:26:26;;;;;;;607.70;550.43;;;;;;;-142.25;100.00;58004.16;5078736;28;20085;-58
2021/09/01 00:28:51;;;;;;;605.10;547.60;;;;;;;-142.25;100.00;58004.16;5081851;28;20032;-58
2021/09/01 00:31:18;;;;;;;599.20;542.13;;;;;;;-142.25;100.00;58004.16;5079524;28;20031;-59
2021/09/01 00:33:45;;;;;;;596.83;539.80;;;;;;;-142.25;100.00;58004.16;5080678;28;20566;-57
2021/09/01 00:36:10;;;;;;;607.07;549.90;;;;;;;-142.25;100.00;58004.16;5078378;28;20154;-58
2021/09/01 00:38:36;;;;;;;596.60;539.40;;;;;;;-142.25;100.00;58004.16;5079376;28;20031;-56
2021/09/01 00:41:02;;;;;;;595.97;539.17;;;;;;;-142.25;100.00;58004.16;5079653;28;20020;-59
2021/09/01 00:43:27;;;;;;;593.73;536.83;;;;;;;-142.25;100.00;58004.16;5062850;28;20036;-56
2021/09/01 00:45:53;;;;;;;594.27;537.70;;;;;;;-142.25;100.00;58004.16;5077587;28;20024;-59
2021/09/01 00:48:19;;;;;;;588.37;531.57;;;;;;;-142.25;100.00;58004.16;5078904;28;20105;-59
2021/09/01 00:50:55;;;;;;;589.67;532.83;;;;;;;-142.25;100.00;58004.16;5078180;28;20135;-59
2021/09/01 00:53:23;;;;;;;584.37;527.83;;;;;;;-142.25;100.00;58004.16;5079243;28;20035;-59
2021/09/01 00:55:49;;;;;;;590.87;534.00;;;;;;;-142.25;100.00;58004.16;5075646;28;20037;-57
2021/09/01 00:58:18;;;;;;;592.67;535.73;;;;;;;-142.25;100.00;58004.16;5080017;28;20134;-58
2021/09/01 01:01:14;;;;;;;586.67;529.50;;;;;;;-142.25;100.00;58004.16;5078590;28;20130;-57
2021/09/01 01:03:40;;;;;;;575.57;519.13;;;;;;;-142.25;100.00;58004.16;5080253;28;20062;-53
2021/09/01 01:06:05;;;;;;;578.80;522.13;;;;;;;-142.25;100.00;58004.16;5078095;28;20024;-57
2021/09/01 01:08:31;;;;;;;584.17;527.27;;;;;;;-142.25;100.00;58004.16;5078969;28;20087;-58
2021/09/01 01:10:57;;;;;;;588.97;531.93;;;;;;;-142.25;100.00;58004.16;5079986;28;20124;-58
2021/09/01 01:13:23;;;;;;;579.80;523.10;;;;;;;-142.25;100.00;58004.16;5079062;28;20337;-57
2021/09/01 01:15:48;;;;;;;580.20;523.60;;;;;;;-142.25;100.00;58004.16;5078361;28;20098;-55
2021/09/01 01:18:16;;;;;;;580.37;523.60;;;;;;;-142.25;100.00;58004.16;5078966;28;20444;-58
2021/09/01 01:20:48;;;;;;;581.43;524.10;;;;;;;-142.25;100.00;58004.16;5078374;28;20040;-58
2021/09/01 01:23:14;;;;;;;574.27;517.73;;;;;;;-142.25;100.00;58004.16;5078768;28;20125;-57
2021/09/01 01:25:40;;;;;;;581.00;524.07;;;;;;;-142.25;100.00;58004.16;5079852;28;20033;-57
2021/09/01 01:28:07;;;;;;;579.23;522.40;;;;;;;-142.25;100.00;58004.16;5080661;28;20032;-58
2021/09/01 01:30:32;;;;;;;567.70;511.07;;;;;;;-142.25;100.00;58004.16;5079402;28;20128;-57
2021/09/01 01:32:58;;;;;;;568.47;511.97;;;;;;;-142.25;100.00;58004.16;5079414;28;20550;-58
2021/09/01 01:35:29;;;;;;;569.07;512.67;;;;;;;-142.25;100.00;58004.16;5080190;28;20045;-58
2021/09/01 01:37:56;;;;;;;568.50;512.20;;;;;;;-142.25;100.00;58004.16;5079093;28;20034;-57
2021/09/01 01:40:23;;;;;;;575.10;518.53;;;;;;;-142.25;100.00;58004.16;5078862;28;20027;-56
2021/09/01 01:42:51;;;;;;;569.37;512.97;;;;;;;-142.25;100.00;58004.16;5078760;28;20122;-59
2021/09/01 01:45:16;;;;;;;569.93;513.37;;;;;;;-142.25;100.00;58004.16;5078379;28;20032;-57
2021/09/01 01:47:42;;;;;;;575.50;518.97;;;;;;;-142.25;100.00;58004.16;5079149;28;20039;-58
2021/09/01 01:50:07;;;;;;;572.33;515.80;;;;;;;-142.25;100.00;58004.16;5079422;28;20373;-58
2021/09/01 01:52:34;;;;;;;566.10;509.77;;;;;;;-142.25;100.00;58004.16;5078811;28;20028;-56
2021/09/01 01:54:59;;;;;;;568.60;511.90;;;;;;;-142.25;100.00;58004.16;5061291;28;20039;-57
2021/09/01 01:57:25;;;;;;;562.20;505.70;;;;;;;-142.25;100.00;58004.16;5078770;28;20044;-58
2021/09/01 01:59:50;;;;;;;567.07;510.63;;;;;;;-142.25;100.00;58004.16;5078537;28;20032;-58
2021/09/01 02:02:15;;;;;;;562.07;505.73;;;;;;;-142.25;100.00;58004.16;5079970;28;20487;-59
2021/09/01 02:04:41;;;;;;;562.70;506.20;;;;;;;-142.25;100.00;58004.16;5082130;28;20028;-58
2021/09/01 02:07:06;;;;;;;567.57;511.10;;;;;;;-142.25;100.00;58004.16;5082063;28;20043;-58
2021/09/01 02:09:31;;;;;;;564.63;508.10;;;;;;;-142.25;100.00;58004.16;5082857;28;20039;-58
2021/09/01 02:11:57;;;;;;;565.93;509.40;;;;;;;-142.25;100.00;58004.16;5082817;28;20032;-59
2021/09/01 02:14:22;;;;;;;557.80;501.73;;;;;;;-142.25;100.00;58004.16;5082816;28;20051;-58
2021/09/01 02:16:48;;;;;;;562.43;505.90;;;;;;;-142.25;100.00;58004.16;5081560;28;20151;-59
2021/09/01 02:19:13;;;;;;;556.60;500.30;;;;;;;-142.25;100.00;58004.16;5083877;28;20056;-59
2021/09/01 02:21:40;;;;;;;557.97;501.00;;;;;;;-142.25;100.00;58004.16;5082081;28;20349;-59
2021/09/01 02:24:06;;;;;;;559.73;503.27;;;;;;;-142.25;100.00;58004.16;5082841;28;20042;-57
2021/09/01 02:26:31;;;;;;;553.97;497.50;;;;;;;-142.25;100.00;58004.16;5081645;28;20397;-59
2021/09/01 02:28:57;;;;;;;564.27;507.57;;;;;;;-142.25;100.00;58004.16;5083099;28;20040;-58
2021/09/01 02:31:22;;;;;;;551.27;495.17;;;;;;;-142.25;100.00;58004.16;5081161;28;20384;-59
2021/09/01 02:33:48;;;;;;;545.37;489.40;;;;;;;-142.25;100.00;58004.16;5080888;28;20135;-58
2021/09/01 02:36:14;;;;;;;541.43;485.63;;;;;;;-142.25;100.00;58004.16;5080509;28;20038;-60
2021/09/01 02:38:43;;;;;;;535.00;479.20;;;;;;;-142.25;100.00;58004.16;5084328;28;20066;-57
2021/09/01 02:41:09;;;;;;;537.37;481.47;;;;;;;-142.25;100.00;58004.16;5083230;28;20396;-59
2021/09/01 02:43:34;;;;;;;537.17;481.10;;;;;;;-142.25;100.00;58004.16;5083039;28;20028;-60
2021/09/01 02:46:00;;;;;;;543.50;487.27;;;;;;;-142.25;100.00;58004.16;5080874;28;20040;-59
2021/09/01 02:48:25;;;;;;;538.30;482.60;;;;;;;-142.25;100.00;58004.16;5081896;28;20035;-57
2021/09/01 02:50:52;;;;;;;535.23;479.30;;;;;;;-142.25;100.00;58004.16;5081157;28;20032;-59
2021/09/01 02:53:18;;;;;;;533.03;477.33;;;;;;;-142.25;100.00;58004.16;5082158;28;20115;-57
2021/09/01 02:55:43;;;;;;;539.73;483.50;;;;;;;-142.25;100.00;58004.16;5081174;28;20142;-60
2021/09/01 02:58:09;;;;;;;535.70;480.17;;;;;;;-142.25;100.00;58004.16;5082133;28;20377;-58
2021/09/01 03:00:34;;;;;;;525.93;470.40;;;;;;;-142.25;100.00;58004.16;5078789;28;20035;-60
2021/09/01 03:03:00;;;;;;;526.10;470.90;;;;;;;-142.25;100.00;58004.16;5083026;28;20467;-58
2021/09/01 03:05:25;;;;;;;528.50;473.10;;;;;;;-142.25;100.00;58004.16;5081655;28;20397;-58
2021/09/01 03:07:50;;;;;;;526.90;471.53;;;;;;;-142.25;100.00;58004.16;5083025;28;20035;-59
2021/09/01 03:10:16;;;;;;;531.03;475.13;;;;;;;-142.25;100.00;58004.16;5078254;28;20040;-57
2021/09/01 03:12:41;;;;;;;521.97;466.67;;;;;;;-142.25;100.00;58004.16;5081186;28;20093;-59
2021/09/01 03:15:07;;;;;;;523.60;468.40;;;;;;;-142.25;100.00;58004.16;5081528;28;20050;-58
2021/09/01 03:17:32;;;;;;;527.90;472.50;;;;;;;-142.25;100.00;58004.16;5080855;28;20028;-59
2021/09/01 03:19:58;;;;;;;533.27;477.20;;;;;;;-142.25;100.00;58004.16;5081041;28;20336;-59
2021/09/01 03:22:23;;;;;;;520.40;465.07;;;;;;;-142.25;100.00;58004.16;5080471;28;20035;-59
2021/09/01 03:24:48;;;;;;;526.17;471.10;;;;;;;-142.25;100.00;58004.16;5081726;28;20954;-59
2021/09/01 03:27:14;;;;;;;528.93;472.97;;;;;;;-142.25;100.00;58004.16;5080829;28;20043;-59
2021/09/01 03:29:39;;;;;;;528.90;473.20;;;;;;;-142.25;100.00;58004.16;5079465;28;20032;-58
2021/09/01 03:32:05;;;;;;;528.03;472.23;;;;;;;-142.25;100.00;58004.16;5062649;28;20467;-59
2021/09/01 03:34:30;;;;;;;526.43;470.93;;;;;;;-142.25;100.00;58004.16;5080488;28;20102;-59
2021/09/01 03:36:56;;;;;;;534.53;478.60;;;;;;;-142.25;100.00;58004.16;5079668;28;20081;-60
2021/09/01 03:39:21;;;;;;;519.87;464.90;;;;;;;-142.25;100.00;58004.16;5080187;28;20052;-59
2021/09/01 03:41:47;;;;;;;527.90;472.30;;;;;;;-142.25;100.00;58004.16;5081465;28;20032;-59
2021/09/01 03:44:12;;;;;;;528.23;472.83;;;;;;;-142.25;100.00;58004.16;5080929;28;20396;-59
2021/09/01 03:46:37;;;;;;;535.00;479.03;;;;;;;-142.25;100.00;58004.16;5079351;28;20043;-57
2021/09/01 03:49:03;;;;;;;527.53;471.47;;;;;;;-142.25;100.00;58004.16;5079538;28;20127;-58
2021/09/01 03:51:28;;;;;;;522.30;466.90;;;;;;;-142.25;100.00;58004.16;5079561;28;20071;-61
2021/09/01 03:53:53;;;;;;;516.13;460.83;;;;;;;-142.25;100.00;58004.16;5081369;28;20146;-57
2021/09/01 03:56:19;;;;;;;524.73;469.13;;;;;;;-142.25;100.00;58004.16;5079491;28;20039;-58
2021/09/01 03:58:44;;;;;;;508.63;453.70;;;;;;;-142.25;100.00;58004.16;5080220;28;20075;-59
2021/09/01 04:01:10;;;;;;;517.30;461.40;;;;;;;-142.25;100.00;58004.16;5079969;28;20035;-57
2021/09/01 04:03:35;;;;;;;510.70;456.23;;;;;;;-142.25;100.00;58004.16;5080763;28;20441;-59
2021/09/01 04:06:00;;;;;;;513.50;458.20;;;;;;;-142.25;100.00;58004.16;5080506;28;20695;-58
2021/09/01 04:08:26;;;;;;;510.47;455.30;;;;;;;-142.25;100.00;58004.16;5080891;28;20042;-56
2021/09/01 04:10:51;;;;;;;513.47;458.30;;;;;;;-142.25;100.00;58004.16;5080980;28;20638;-58
2021/09/01 04:13:17;;;;;;;512.50;457.17;;;;;;;-142.25;100.00;58004.16;5078228;28;20036;-55
2021/09/01 04:15:42;;;;;;;530.80;474.03;;;;;;;-142.25;100.00;58004.16;5080927;28;20032;-57
2021/09/01 04:18:08;;;;;;;502.90;448.17;;;;;;;-142.25;100.00;58004.16;5078371;28;20301;-58
2021/09/01 04:20:33;;;;;;;504.13;449.43;;;;;;;-142.25;100.00;58004.16;5077611;28;20074;-59
2021/09/01 04:22:58;;;;;;;511.17;455.90;;;;;;;-142.25;100.00;58004.16;5077140;28;20127;-59
2021/09/01 04:25:24;;;;;;;514.37;459.00;;;;;;;-142.25;100.00;58004.16;5079130;28;20089;-58
2021/09/01 04:27:49;;;;;;;513.33;457.73;;;;;;;-142.25;100.00;58004.16;5078814;28;20031;-57
2021/09/01 04:30:15;;;;;;;510.07;455.13;;;;;;;-142.25;100.00;58004.16;5077251;28;20063;-59
2021/09/01 04:32:40;;;;;;;510.00;454.97;;;;;;;-142.25;100.00;58004.16;5079569;28;20047;-55
2021/09/01 04:35:06;;;;;;;506.83;452.03;;;;;;;-142.25;100.00;58004.16;5079187;28;20052;-58
2021/09/01 04:37:31;;;;;;;498.13;442.70;;;;;;;-142.25;100.00;58004.16;5078288;28;20106;-58
2021/09/01 04:39:57;;;;;;;501.77;446.40;;;;;;;-142.25;100.00;58004.16;5077991;28;20290;-59
2021/09/01 04:42:22;;;;;;;507.37;452.27;;;;;;;-142.25;100.00;58004.16;5078103;28;20047;-58
2021/09/01 04:44:48;;;;;;;522.60;466.63;;;;;;;-142.25;100.00;58004.16;5078120;28;20051;-58
2021/09/01 04:47:13;;;;;;;512.13;457.33;;;;;;;-142.25;100.00;58004.16;5078880;28;20457;-59
2021/09/01 04:49:38;;;;;;;502.80;448.00;;;;;;;-142.25;100.00;58004.16;5077534;28;20028;-57
2021/09/01 04:52:04;;;;;;;501.20;446.63;;;;;;;-142.25;100.00;58004.16;5079757;28;20036;-58
2021/09/01 04:54:32;;;;;;;501.67;446.87;;;;;;;-142.25;100.00;58004.16;5079894;28;20035;-58
2021/09/01 04:56:57;;;;;;;499.83;445.67;;;;;;;-142.25;100.00;58004.16;5079948;28;20074;-58
2021/09/01 04:59:22;;;;;;;503.37;448.27;;;;;;;-142.25;100.00;58004.16;5078358;28;20114;-58
2021/09/01 05:01:48;;;;;;;521.20;466.30;;;;;;;-142.25;100.00;58004.16;5061309;28;20039;-56
2021/09/01 05:04:14;;;;;;;510.63;455.57;;;;;;;-142.25;100.00;58004.16;5077479;28;20028;-57
2021/09/01 05:06:39;;;;;;;501.53;446.97;;;;;;;-142.25;100.00;58004.16;5078154;28;20037;-59
2021/09/01 05:09:04;;;;;;;496.90;442.93;;;;;;;-142.25;100.00;58004.16;5061843;28;20036;-58
2021/09/01 05:11:30;;;;;;;505.57;451.13;;;;;;;-142.25;100.00;58004.16;5059279;28;20086;-58
2021/09/01 05:13:55;;;;;;;503.93;449.30;;;;;;;-142.25;100.00;58004.16;5078466;28;20039;-57
2021/09/01 05:16:21;;;;;;;516.07;461.03;;;;;;;-142.25;100.00;58004.16;5077721;28;20344;-59
2021/09/01 05:18:46;;;;;;;506.63;451.77;;;;;;;-142.25;100.00;58004.16;5076929;28;20377;-58
2021/09/01 05:21:15;;;;;;;507.50;452.53;;;;;;;-142.25;100.00;58004.16;5075754;28;20123;-58
2021/09/01 05:23:42;;;;;;;509.50;454.70;;;;;;;-142.25;100.00;58004.16;5069334;28;20052;-59
2021/09/01 05:26:07;;;;;;;511.77;456.33;;;;;;;-142.25;100.00;58004.16;5075607;28;20024;-58
2021/09/01 05:28:35;;;;;;;517.10;462.13;;;;;;;-142.25;100.00;58004.16;5079058;28;20097;-59
2021/09/01 05:31:03;;;;;;;509.70;454.23;;;;;;;-142.25;100.00;58004.16;5076588;28;20123;-58
2021/09/01 05:33:31;;;;;;;509.23;454.53;;;;;;;-142.25;100.00;58004.16;5079711;28;20051;-59
2021/09/01 05:35:58;;;;;;;525.50;469.10;;;;;;;-142.25;100.00;58004.16;5076321;28;20062;-57
2021/09/01 05:38:23;;;;;;;506.97;452.30;;;;;;;-142.25;100.00;58004.16;5081248;28;20043;-58
2021/09/01 05:40:51;;;;;;;521.97;466.53;;;;;;;-142.25;100.00;58004.16;5081972;28;20036;-57
2021/09/01 05:43:19;;;;;;;503.43;448.23;;;;;;;-142.25;100.00;58004.16;5064990;28;20032;-60
2021/09/01 05:45:46;;;;;;;523.93;468.23;;;;;;;-142.25;100.00;58004.16;5081966;28;20032;-59
2021/09/01 05:48:12;;;;;;;492.37;438.23;;;;;;;-142.25;100.00;58004.16;5081587;28;20024;-57
2021/09/01 05:50:41;;;;;;;502.63;448.17;;;;;;;-142.25;100.00;58004.16;5083094;28;20039;-58
2021/09/01 05:53:08;;;;;;;505.70;451.37;;;;;;;-142.25;100.00;58004.16;5081749;28;20387;-59
2021/09/01 05:55:37;;;;;;;523.57;468.57;;;;;;;-142.25;100.00;58004.16;5080409;28;20032;-59
2021/09/01 05:58:03;;;;;;;504.97;450.47;;;;;;;-142.25;100.00;58004.16;5083009;28;20114;-57
2021/09/01 06:00:35;;;;;;;522.90;467.70;;;;;;;-142.25;100.00;58004.16;5082270;28;20172;-58
2021/09/01 06:03:23;;;;;;;520.43;465.50;;;;;;;-142.25;100.00;58004.16;5072529;28;20050;-58
2021/09/01 06:05:54;;;;;;;523.87;468.47;;;;;;;-142.25;100.00;58004.16;5080672;28;20075;-57
2021/09/01 06:08:22;;;;;;;534.83;479.30;;;;;;;-142.25;100.00;58004.16;5080668;28;20043;-56
2021/09/01 06:10:48;;;;;;;520.97;465.53;;;;;;;-142.25;100.00;58004.16;5082200;28;20037;-58
2021/09/01 06:13:14;;;;;;;534.13;478.13;;;;;;;-142.25;100.00;58004.16;5083443;28;20055;-57
2021/09/01 06:15:41;;;;;;;530.40;474.83;;;;;;;-142.25;100.00;58004.16;5084195;28;20603;-57
2021/09/01 06:18:08;;;;;;;526.63;471.60;;;;;;;-142.25;100.00;58004.16;5081235;28;20035;-54
2021/09/01 06:20:35;;;;;;;531.97;476.70;;;;;;;-142.25;100.00;58004.16;5079008;28;20054;-59
2021/09/01 06:23:01;;;;;;;534.37;478.57;;;;;;;-142.25;100.00;58004.16;5078608;28;20023;-58
2021/09/01 06:25:27;;;;;;;525.00;469.87;;;;;;;-142.25;100.00;58004.16;5081953;28;20051;-59
2021/09/01 06:27:53;;;;;;;530.67;475.17;;;;;;;-142.25;100.00;58004.16;5081256;28;20054;-57
2021/09/01 06:30:19;;;;;;;531.33;476.23;;;;;;;-142.25;100.00;58004.16;5080908;28;20369;-58
2021/09/01 06:32:44;;;;;;;528.97;473.60;;;;;;;-142.25;100.00;58004.16;5080405;28;20036;-58
2021/09/01 06:35:12;;;;;;;511.43;456.87;;;;;;;-142.25;100.00;58004.16;5079324;28;20102;-57
2021/09/01 06:37:38;;;;;;;518.43;463.67;;;;;;;-142.25;100.00;58004.16;5081181;28;20052;-57
2021/09/01 06:40:04;;;;;;;520.47;466.03;;;;;;;-142.25;100.00;58004.16;5078054;28;20029;-58
2021/09/01 06:42:30;;;;;;;526.77;472.07;;;;;;;-142.25;100.00;58004.16;5080813;28;20084;-56
2021/09/01 06:44:56;;;;;;;526.63;471.93;;;;;;;-142.25;100.00;58004.16;5079781;28;20033;-58
2021/09/01 06:47:21;;;;;;;541.40;485.90;;;;;;;-142.25;100.00;58004.16;5078636;28;20028;-55
2021/09/01 06:49:47;;;;;;;533.93;479.40;;;;;;;-142.25;100.00;58004.16;5078651;28;20094;-58
2021/09/01 06:52:12;;;;;;;539.10;484.13;;;;;;;-142.25;100.00;58004.16;5079546;28;20094;-59
2021/09/01 06:54:38;;;;;;;551.67;496.33;;;;;;;-142.25;100.00;58004.16;5078472;28;20720;-58
2021/09/01 06:57:04;;;;;;;541.20;486.47;;;;;;;-142.25;100.00;58004.16;5080180;28;20097;-58
2021/09/01 06:59:29;;;;;;;534.10;479.43;;;;;;;-142.25;100.00;58004.16;5081173;28;20114;-58
2021/09/01 07:01:55;;;;;;;528.00;473.33;;;;;;;-142.25;100.00;58004.16;5080134;28;20044;-54
2021/09/01 07:04:20;;;;;;;533.50;478.90;;;;;;;-142.25;100.00;58004.16;5081579;28;20036;-57
2021/09/01 07:06:46;;;;;;;550.60;495.43;;;;;;;-142.25;100.00;58004.16;5080908;28;20032;-59
2021/09/01 07:09:11;;;;;;;556.90;501.50;;;;;;;-142.25;100.00;58004.16;5079457;28;20365;-59
2021/09/01 07:11:37;;;;;;;540.33;485.67;;;;;;;-142.25;100.00;58004.16;5079987;28;20090;-57
2021/09/01 07:14:02;;;;;;;546.77;491.93;;;;;;;-142.25;100.00;58004.16;5079681;28;20277;-58
2021/09/01 07:16:28;;;;;;;556.10;501.23;;;;;;;-142.25;100.00;58004.16;5077615;28;20044;-56
2021/09/01 07:18:54;;;;;;;557.23;501.97;;;;;;;-142.25;100.00;58004.16;5078836;28;20054;-56
2021/09/01 07:21:19;;;;;;;570.23;514.00;;;;;;;-142.25;100.00;58004.16;5079816;28;20421;-57
2021/09/01 07:23:45;;;;;;;551.80;496.17;;;;;;;-142.25;100.00;58004.16;5081797;28;20029;-54
2021/09/01 07:26:11;;;;;;;572.37;516.50;;;;;;;-142.25;100.00;58004.16;5078810;28;20546;-57
2021/09/01 07:28:40;;;;;;;540.60;485.57;;;;;;;-142.25;100.00;58004.16;5081090;28;20027;-56
2021/09/01 07:31:07;;;;;;;538.80;484.57;;;;;;;-142.25;100.00;58004.16;5081493;28;20062;-57
2021/09/01 07:33:33;;;;;;;553.73;498.57;;;;;;;-142.25;100.00;58004.16;5080918;28;20039;-56
2021/09/01 07:35:58;;;;;;;531.73;477.27;;;;;;;-142.25;100.00;58004.16;5081123;28;20384;-57
2021/09/01 07:38:24;;;;;;;531.17;476.67;;;;;;;-142.25;100.00;58004.16;5062270;28;20109;-56
2021/09/01 07:40:49;;;;;;;532.67;477.70;;;;;;;-142.25;100.00;58004.16;5077011;28;20048;-58
2021/09/01 07:43:15;;;;;;;541.03;486.27;;;;;;;-142.25;100.00;58004.16;5079287;28;20289;-55
2021/09/01 07:45:42;;;;;;;533.93;479.07;;;;;;;-142.25;100.00;58004.16;5081115;28;20043;-55
2021/09/01 07:48:08;;;;;;;550.70;495.53;;;;;;;-142.25;100.00;58004.16;5078122;28;20044;-57
2021/09/01 07:50:34;;;;;;;570.63;514.93;;;;;;;-142.25;100.00;58004.16;5078290;28;20078;-56
2021/09/01 07:53:00;;;;;;;561.77;506.37;;;;;;;-142.25;100.00;58004.16;5080508;28;20519;-57
2021/09/01 07:55:26;;;;;;;581.10;525.20;;;;;;;-142.25;100.00;58004.16;5077735;28;20026;-57
2021/09/01 07:57:51;;;;;;;579.33;523.83;;;;;;;-142.25;100.00;58004.16;5080019;28;20032;-57
2021/09/01 08:00:17;;;;;;;599.60;543.23;;;;;;;-142.25;100.00;58004.16;5077154;28;20110;-52
2021/09/01 08:02:43;;;;;;;598.27;542.30;;;;;;;-142.25;100.00;58004.16;5079784;28;20117;-57
2021/09/01 08:05:08;;;;;;;584.17;528.13;;;;;;;-142.25;100.00;58004.16;5077879;28;20037;-58
2021/09/01 08:07:35;;;;;;;587.10;531.33;;;;;;;-142.25;100.00;58004.16;5077442;28;20033;-56
2021/09/01 08:10:00;;;;;;;576.77;521.43;;;;;;;-142.25;100.00;58004.16;5070849;28;20016;-54
2021/09/01 08:12:26;;;;;;;577.63;522.53;;;;;;;-142.25;100.00;58004.16;5077703;28;20032;-55
2021/09/01 08:14:51;;;;;;;586.07;530.30;;;;;;;-142.25;100.00;58004.16;5080170;28;20153;-57
2021/09/01 08:17:17;;;;;;;584.20;528.57;;;;;;;-142.25;100.00;58004.16;5077260;28;20032;-56
2021/09/01 08:19:44;;;;;;;582.43;527.13;;;;;;;-142.25;100.00;58004.16;5079462;28;20024;-58
2021/09/01 08:22:10;;;;;;;617.90;560.77;;;;;;;-142.25;100.00;58004.16;5060904;28;20021;-57
2021/09/01 08:24:38;;;;;;;585.67;530.23;;;;;;;-142.25;100.00;58004.16;5065200;28;20028;-53
2021/09/01 08:27:05;;;;;;;588.53;533.13;;;;;;;-142.25;100.00;58004.16;5079443;28;20024;-57
2021/09/01 08:29:30;;;;;;;592.90;537.27;;;;;;;-142.25;100.00;58004.16;5079638;28;20020;-58
2021/09/01 08:31:55;;;;;;;617.10;560.70;;;;;;;-142.25;100.00;58004.16;5078458;28;20101;-58
2021/09/01 08:34:21;;;;;;;606.93;551.10;;;;;;;-142.25;100.00;58004.16;5079025;28;20063;-56
2021/09/01 08:36:47;;;;;;;619.53;563.37;;;;;;;-142.25;100.00;58004.16;5080380;28;20036;-58
2021/09/01 08:39:12;;;;;;;630.20;573.13;;;;;;;-142.25;100.00;58004.16;5080205;28;20032;-58
2021/09/01 08:41:38;;;;;;;640.60;583.57;;;;;;;-142.25;100.00;58004.16;5077117;28;20097;-58
2021/09/01 08:44:04;;;;;;;633.00;576.30;;;;;;;-142.25;100.00;58004.16;5078911;28;20032;-56
2021/09/01 08:46:32;;;;;;;663.03;605.43;;;;;;;-142.25;100.00;58004.16;5078368;28;20020;-57
2021/09/01 08:49:02;;;;;;;661.67;603.60;;;;;;;-142.25;100.00;58004.16;5077698;28;20098;-58
2021/09/01 08:51:31;;;;;;;646.77;589.07;;;;;;;-142.25;100.00;58004.16;5076764;28;20412;-61
2021/09/01 08:53:57;;;;;;;635.60;578.70;;;;;;;-142.25;100.00;58004.16;5079103;28;20280;-56
2021/09/01 08:56:24;;;;;;;647.37;589.83;;;;;;;-142.25;100.00;58004.16;5079094;28;20243;-57
2021/09/01 08:58:49;;;;;;;622.00;565.50;;;;;;;-142.25;100.00;58004.16;5078904;28;20027;-55
2021/09/01 09:01:55;;;;;;;636.83;579.63;;;;;;;-142.25;100.00;58004.16;5076618;28;20028;-58
2021/09/01 09:04:26;;;;;;;630.55;574.22;;;;;;;-142.25;100.00;58004.16;5047381;28;20052;-57
2021/09/01 09:07:13;;;;;;;626.97;570.50;;;;;;;-142.25;100.00;58004.16;5070727;28;20032;-59
2021/09/01 09:09:39;;;;;;;634.93;577.83;;;;;;;-142.25;100.00;58004.16;5077597;28;20095;-59
2021/09/01 09:12:07;;;;;;;629.67;572.93;;;;;;;-142.25;100.00;58004.16;5077642;28;20285;-58
2021/09/01 09:14:38;;;;;;;632.53;575.97;;;;;;;-142.25;100.00;58004.16;5078384;28;20041;-57
2021/09/01 09:17:13;;;;;;;627.17;570.60;;;;;;;-142.25;100.00;58004.16;5078219;28;20222;-58
2021/09/01 09:19:41;;;;;;;651.67;593.78;;;;;;;-142.25;100.00;58004.16;5078832;28;20063;-58
2021/09/01 09:22:07;;;;;;;637.50;580.27;;;;;;;-142.25;100.00;58004.16;5077888;28;20028;-57
2021/09/01 09:24:33;;;;;;;618.43;562.40;;;;;;;-142.25;100.00;58004.16;5076756;28;20028;-54
2021/09/01 09:26:59;;;;;;;614.57;558.33;;;;;;;-142.25;100.00;58004.16;5079027;28;20059;-58
2021/09/01 09:29:24;;;;;;;626.07;569.53;;;;;;;-142.25;100.00;58004.16;5077237;28;20123;-58
2021/09/01 09:32:00;;;;;;;632.17;575.67;;;;;;;-142.25;100.00;58004.16;5077534;28;20036;-59
2021/09/01 09:34:36;;;;;;;626.60;570.43;;;;;;;-142.25;100.00;58004.16;5077020;28;20179;-58
2021/09/01 09:37:11;;;;;;;644.60;587.60;;;;;;;-142.25;100.00;58004.16;5078395;28;20035;-56
2021/09/01 09:39:41;;;;;;;640.67;583.63;;;;;;;-142.25;100.00;58004.16;5077640;28;20085;-56
2021/09/01 09:42:12;;;;;;;627.43;570.53;;;;;;;-142.25;100.00;58004.16;5077085;28;20056;-57
2021/09/01 09:44:37;;;;;;;643.80;586.93;;;;;;;-142.25;100.00;58004.16;5063368;28;20036;-56
2021/09/01 09:47:03;;;;;;;631.60;575.27;;;;;;;-142.25;100.00;58004.16;5075848;28;20258;-56
2021/09/01 09:49:31;;;;;;;639.43;582.70;;;;;;;-142.25;100.00;58004.16;5075970;28;20111;-57
2021/09/01 09:51:57;;;;;;;626.00;569.73;;;;;;;-142.25;100.00;58004.16;5077485;28;20041;-57
2021/09/01 09:54:25;;;;;;;623.10;567.17;;;;;;;-142.25;100.00;58004.16;5078717;28;20376;-57
2021/09/01 09:56:52;;;;;;;646.17;589.37;;;;;;;-142.25;100.00;58004.16;5060953;28;20440;-57
2021/09/01 09:59:21;;;;;;;647.00;590.13;;;;;;;-142.25;100.00;58004.16;5075367;28;20036;-57
2021/09/01 10:01:48;;;;;;;639.87;583.13;;;;;;;-142.25;100.00;58004.16;5076565;28;20441;-63
2021/09/01 10:04:14;;;;;;;644.43;587.73;;;;;;;-142.25;100.00;58004.16;5077242;28;20039;-57
2021/09/01 10:06:41;;;;;;;651.70;594.87;;;;;;;-142.25;100.00;58004.16;5077539;28;20032;-55
2021/09/01 10:09:06;;;;;;;661.17;603.43;;;;;;;-142.25;100.00;58004.16;5076512;28;20388;-54
2021/09/01 10:11:32;;;;;;;647.63;590.63;;;;;;;-142.25;100.00;58004.16;5078034;28;20028;-55
2021/09/01 10:13:58;;;;;;;650.23;593.23;;;;;;;-142.25;100.00;58004.16;5079173;28;20043;-56
2021/09/01 10:16:33;;;;;;;657.73;600.60;;;;;;;-142.25;100.00;58004.16;5079412;28;20288;-56
2021/09/01 10:19:10;;;;;;;656.78;599.35;;;;;;;-142.25;100.00;58004.16;5079244;28;20093;-56
2021/09/01 10:21:51;;;;;;;650.13;593.13;;;;;;;-142.25;100.00;58004.16;5076402;28;20398;-55
2021/09/01 10:24:17;;;;;;;654.97;597.43;;;;;;;-142.25;100.00;58004.16;5080131;28;20073;-56
2021/09/01 10:27:04;;;;;;;649.40;592.87;;;;;;;-142.25;100.00;58004.16;5067489;28;20033;-57
2021/09/01 10:30:06;;;;;;;629.27;573.13;;;;;;;-142.25;100.00;58004.16;5079035;28;20028;-57
2021/09/01 10:32:31;;;;;;;653.93;597.30;;;;;;;-142.25;100.00;58004.16;5051438;28;20040;-58
2021/09/01 10:35:17;;;;;;;666.77;609.97;;;;;;;-142.25;100.00;58004.16;5080433;28;20048;-56
2021/09/01 10:37:56;;;;;;;648.53;592.07;;;;;;;-142.25;100.00;58004.16;5068203;28;20063;-59
2021/09/01 10:40:21;;;;;;;641.17;585.23;;;;;;;-142.25;100.00;58004.16;5080759;28;20254;-58